
Distance (Route):
Temperature : 11.8°C
Humidity : 82.1%
Pressure : 870.0hPa| Receiver | Date | Latitude | Longitude | Direction | Speed | Altitude | Climb | Temperature | Humidity | Pressure | Voltage | Killtimer | Uptime | BKT | XDATA |
|---|---|---|---|---|---|---|---|---|---|---|---|---|---|---|---|
| SP4MAZ | 2026-09-01 01:24:22 | 52.87525 | 22.15052 | 76° | 27km/h | 1309m | -10.9m/s | 11.8°C | 82.1% | 870.0hPa | 0V | 00:00:00 | 00:00:00 | 00:00:00 | |
| SP4MAZ | 2026-09-01 01:24:02 | 52.87473 | 22.14812 | 71° | 33km/h | 1555m | -12.7m/s | 10.4°C | 81.4% | 845.1hPa | 0V | 00:00:00 | 00:00:00 | 00:00:00 | |
| SP4MAZ | 2026-09-01 01:23:40 | 52.87401 | 22.14495 | 69° | 38km/h | 1823m | -12.7m/s | 8.7°C | 80.8% | 818.0hPa | 0V | 00:00:00 | 00:00:00 | 00:00:00 | |
| SP4MAZ | 2026-09-01 01:23:09 | 52.87298 | 22.14020 | 73° | 42km/h | 2212m | -12.4m/s | 6.1°C | 72.1% | 780.4hPa | 0V | 00:00:00 | 00:00:00 | 00:00:00 | |
| SP4MAZ | 2026-09-01 01:22:49 | 52.87218 | 22.13662 | 70° | 49km/h | 2466m | -13.5m/s | 4.1°C | 75.6% | 756.5hPa | 0V | 00:00:00 | 00:00:00 | 00:00:00 | |
| SP4MAZ | 2026-09-01 01:22:27 | 52.87105 | 22.13265 | 60° | 42km/h | 2741m | -13.2m/s | 3.3°C | 38.3% | 730.7hPa | 0V | 00:00:00 | 00:00:00 | 00:00:00 | |
| SP4MAZ | 2026-09-01 01:22:07 | 52.86981 | 22.12993 | 50° | 40km/h | 3004m | -12.7m/s | 1.4°C | 50.0% | 707.9hPa | 0V | 00:00:00 | 00:00:00 | 00:00:00 | |
| SP4MAZ | 2026-09-01 01:21:46 | 30.66925 | 12.64934 | 0° | 0km/h | 5529m | 0.0m/s | -0.7°C | 39.9% | 684.4hPa | 0V | 00:00:00 | 00:00:00 | 00:00:00 | |
| SP4MAZ | 2026-09-01 01:21:14 | 43.46659 | 29.15619 | 0° | 0km/h | 10075m | 0.0m/s | -1.1°C | 9.3% | 651.5hPa | 0V | 00:00:00 | 00:00:00 | 00:00:00 | |
| SP4MAZ | 2026-09-01 01:20:53 | 41.76711 | 48.73503 | 0° | 0km/h | 9444m | 0.0m/s | -3.2°C | 7.6% | 629.2hPa | 0V | 00:00:00 | 00:00:00 | 00:00:00 | |
| SP4MAZ | 2026-09-01 01:20:22 | 40.62728 | 48.06404 | 0° | 0km/h | 9023m | 0.0m/s | -3.8°C | 3.4% | 597.0hPa | 0V | 00:00:00 | 00:00:00 | 00:00:00 | |
| SP4MAZ | 2026-09-01 01:20:01 | 41.46398 | 48.44620 | 0° | 0km/h | 9332m | 0.0m/s | -6.2°C | 11.4% | 574.1hPa | 0V | 00:00:00 | 00:00:00 | 00:00:00 | |
| SP4MAZ | 2026-09-01 01:19:40 | 40.95975 | 48.09780 | 0° | 0km/h | 9146m | 0.0m/s | -8.7°C | 14.7% | 552.5hPa | 0V | 00:00:00 | 00:00:00 | 00:00:00 | |
| SP4MAZ | 2026-09-01 01:19:21 | 39.68445 | 47.03730 | 0° | 0km/h | 8676m | 0.0m/s | -11.0°C | 15.1% | 532.1hPa | 0V | 00:00:00 | 00:00:00 | 00:00:00 | |
| SP4MAZ | 2026-09-01 01:18:50 | 39.68445 | 47.03730 | 0° | 0km/h | 8676m | 0.0m/s | -14.5°C | 16.2% | 502.1hPa | 0V | 00:00:00 | 00:00:00 | 00:00:00 | |
| SP4MAZ | 2026-09-01 01:18:29 | 39.68445 | 47.03730 | 0° | 0km/h | 8676m | 0.0m/s | -17.4°C | 21.4% | 481.5hPa | 0V | 00:00:00 | 00:00:00 | 00:00:00 | |
| SP4MAZ | 2026-09-01 01:18:09 | 39.68445 | 47.03730 | 0° | 0km/h | 8676m | 0.0m/s | -20.2°C | 29.1% | 462.5hPa | 0V | 00:00:00 | 00:00:00 | 00:00:00 | |
| SP4MAZ | 2026-09-01 01:17:38 | 40.07404 | 47.21829 | 0° | 0km/h | 8819m | 0.0m/s | -24.3°C | 32.8% | 434.0hPa | 0V | 00:00:00 | 00:00:00 | 00:00:00 | |
| SP4MAZ | 2026-09-01 00:32:16 | 52.75037 | 21.77692 | 0° | 0km/h | 24606m | 0.0m/s | -53.7°C | 1.0% | 29.4hPa | 0V | 00:00:00 | 00:00:00 | 00:00:00 | |
| SQ9EZE-16 | 2026-09-01 00:31:15 | 52.75037 | 21.77692 | 0° | 0km/h | 24606m | 0.0m/s | -53.1°C | 0.9% | 31.1hPa | 0V | 00:00:00 | 00:00:00 | 00:00:00 | |
| SP4MAZ | 2026-09-01 00:31:07 | 52.74792 | 21.76536 | 0° | 0km/h | 25276m | 0.0m/s | -52.9°C | 0.9% | 31.3hPa | 0V | 00:00:00 | 00:00:00 | 00:00:00 | |
| SQ9EZE-16 | 2026-09-01 00:30:59 | 52.75037 | 21.77692 | 0° | 0km/h | 24606m | 0.0m/s | -52.9°C | 0.9% | 31.6hPa | 0V | 00:00:00 | 00:00:00 | 00:00:00 | |
| SP4MAZ | 2026-09-01 00:30:46 | 52.74911 | 21.77065 | 251° | 226km/h | 24963m | 52.1m/s | -52.8°C | 0.9% | 32.0hPa | 0V | 00:00:00 | 00:00:00 | 00:00:00 | |
| SQ9EZE-16 | 2026-09-01 00:30:40 | 52.75037 | 21.77692 | 0° | 0km/h | 24606m | 0.0m/s | -52.7°C | 0.9% | 32.1hPa | 0V | 00:00:00 | 00:00:00 | 00:00:00 | |
| SQ9EZE-16 | 2026-09-01 00:30:24 | 52.75037 | 21.77692 | 0° | 0km/h | 24606m | 0.0m/s | -52.5°C | 0% | 32.6hPa | 0V | 00:00:00 | 00:00:00 | 00:00:00 | |
| SQ9EZE-15 | 2026-09-01 00:30:18 | 52.74792 | 21.76536 | 0° | 0km/h | 25276m | 0.0m/s | -52.7°C | 0.9% | 32.8hPa | 0V | 00:00:00 | 00:00:00 | 00:00:00 | |
| SQ9EZE-16 | 2026-09-01 00:30:09 | 52.75037 | 21.77692 | 0° | 0km/h | 24606m | 0.0m/s | -53.1°C | 0% | 33.0hPa | 0V | 00:00:00 | 00:00:00 | 00:00:00 | |
| SQ9EZE-15 | 2026-09-01 00:29:56 | 52.74792 | 21.76536 | 0° | 0km/h | 25276m | 0.0m/s | -53.2°C | 0.9% | 33.4hPa | 0V | 00:00:00 | 00:00:00 | 00:00:00 | |
| SQ9EZE-16 | 2026-09-01 00:29:54 | 52.75037 | 21.77692 | 0° | 0km/h | 24606m | 0.0m/s | -53.3°C | 0% | 33.5hPa | 0V | 00:00:00 | 00:00:00 | 00:00:00 | |
| SQ9EZE-16 | 2026-09-01 00:29:39 | 52.75037 | 21.77692 | 0° | 0km/h | 24606m | 0.0m/s | 0°C | 0% | 34.0hPa | 0V | 00:00:00 | 00:00:00 | 00:00:00 | |
| SQ9EZE-15 | 2026-09-01 00:29:36 | 52.74792 | 21.76536 | 0° | 0km/h | 25276m | 0.0m/s | -53.0°C | 0.9% | 34.1hPa | 0V | 00:00:00 | 00:00:00 | 00:00:00 | |
| SP4MAZ | 2026-09-01 00:29:34 | 52.74792 | 21.76536 | 0° | 0km/h | 25276m | 0.0m/s | -52.9°C | 0.9% | 34.1hPa | 0V | 00:00:00 | 00:00:00 | 00:00:00 | |
| SQ9EZE-16 | 2026-09-01 00:29:23 | 52.75010 | 21.77506 | 251° | 226km/h | 24703m | 52.1m/s | 0°C | 0% | 34.5hPa | 0V | 00:00:00 | 00:00:00 | 00:00:00 | |
| SP4MAZ | 2026-09-01 00:29:14 | 52.75228 | 21.78339 | 252° | 219km/h | 24150m | 50.0m/s | -53.0°C | 0.9% | 34.8hPa | 0V | 00:00:00 | 00:00:00 | 00:00:00 | |
| SQ9EZE-16 | 2026-09-01 00:29:07 | 52.76611 | 21.77551 | 284° | 608km/h | 22709m | -78.4m/s | 0°C | 0% | 35.0hPa | 0V | 00:00:00 | 00:00:00 | 00:00:00 | |
| SP4MAZ | 2026-09-01 00:28:53 | 52.75386 | 21.80556 | 143° | 26km/h | 23203m | 5.5m/s | -53.5°C | 0.9% | 35.5hPa | 0V | 00:00:00 | 00:00:00 | 00:00:00 | |
| SQ9EZE-16 | 2026-09-01 00:28:50 | 52.75402 | 21.80544 | 10° | 13km/h | 23189m | 6.3m/s | 0°C | 0% | 35.6hPa | 0V | 00:00:00 | 00:00:00 | 00:00:00 | |
| SQ9EZE-16 | 2026-09-01 00:28:31 | 52.75384 | 21.80479 | 47° | 11km/h | 23086m | 5.8m/s | 0°C | 0% | 36.2hPa | 0V | 00:00:00 | 00:00:00 | 00:00:00 | |
| SP4MAZ | 2026-09-01 00:28:22 | 52.75390 | 21.80437 | 103° | 7km/h | 23026m | 3.0m/s | -53.7°C | 1.0% | 36.5hPa | 0V | 00:00:00 | 00:00:00 | 00:00:00 | |
| SQ9EZE-16 | 2026-09-01 00:28:16 | 52.75381 | 21.80419 | 55° | 7km/h | 22989m | 5.4m/s | 0°C | 0% | 36.7hPa | 0V | 00:00:00 | 00:00:00 | 00:00:00 | |
| SP4MAZ | 2026-09-01 00:28:00 | 52.75414 | 21.80357 | 197° | 4km/h | 22868m | 0.8m/s | -53.2°C | 1.0% | 37.3hPa | 0V | 00:00:00 | 00:00:00 | 00:00:00 | |
| SQ9EZE-16 | 2026-09-01 00:27:58 | 52.75459 | 21.80293 | 358° | 89km/h | 22876m | 6.9m/s | 0°C | 0% | 37.3hPa | 0V | 00:00:00 | 00:00:00 | 00:00:00 | |
| SP4MAZ | 2026-09-01 00:27:40 | 52.75425 | 21.80347 | 131° | 22km/h | 22785m | 5.2m/s | -53.0°C | 0.9% | 37.9hPa | 0V | 00:00:00 | 00:00:00 | 00:00:00 | |
| SQ9EZE-16 | 2026-09-01 00:27:39 | 52.75429 | 21.80341 | 140° | 20km/h | 22780m | 6.2m/s | 0°C | 0% | 38.0hPa | 0V | 00:00:00 | 00:00:00 | 00:00:00 | |
| SQ9EZE-16 | 2026-09-01 00:27:22 | 52.75523 | 21.80221 | 132° | 27km/h | 22684m | 6.2m/s | 0°C | 0% | 0hPa | 0V | 00:00:00 | 00:00:00 | 00:00:00 | |
| SQ9EZE-16 | 2026-09-01 00:27:05 | 52.75549 | 21.80066 | 96° | 20km/h | 22582m | 4.4m/s | 0°C | 0% | 0hPa | 0V | 00:00:00 | 00:00:00 | 00:00:00 | |
| SQ9EZE-15 | 2026-09-01 00:27:03 | 52.75548 | 21.80056 | 103° | 16km/h | 22567m | 5.0m/s | -53.6°C | 0% | 0hPa | 0V | 00:00:00 | 00:00:00 | 00:00:00 | |
| SQ9EZE-16 | 2026-09-01 00:26:49 | 52.75524 | 21.79936 | 50° | 26km/h | 22497m | 6.4m/s | 0°C | 0% | 0hPa | 0V | 00:00:00 | 00:00:00 | 00:00:00 | |
| SQ9EZE-15 | 2026-09-01 00:26:42 | 52.75503 | 21.79898 | 44° | 20km/h | 22451m | 5.1m/s | -53.9°C | 0% | 0hPa | 0V | 00:00:00 | 00:00:00 | 00:00:00 | |
| SP4MAZ | 2026-09-01 00:25:47 | 52.75434 | 21.79862 | 238° | 15km/h | 22175m | 6.7m/s | -53.7°C | 1.0% | 41.8hPa | 0V | 00:00:00 | 00:00:00 | 00:00:00 | |
| SP4MAZ | 2026-09-01 00:25:27 | 52.75468 | 21.79895 | 199° | 9km/h | 22052m | 6.5m/s | -53.9°C | 1.0% | 42.6hPa | 0V | 00:00:00 | 00:00:00 | 00:00:00 | |
| SQ9EZE-15 | 2026-09-01 00:25:23 | 52.75480 | 21.79892 | 137° | 9km/h | 22023m | 5.0m/s | 0°C | 0% | 42.7hPa | 0V | 00:00:00 | 00:00:00 | 00:00:00 | |
| SQ9EZE-15 | 2026-09-01 00:25:04 | 52.75543 | 21.79868 | 192° | 11km/h | 21901m | 4.0m/s | 0°C | 0% | 43.4hPa | 0V | 00:00:00 | 00:00:00 | 00:00:00 | |
| SP4MAZ | 2026-09-01 00:24:23 | 52.75606 | 21.79784 | 335° | 13km/h | 21684m | 5.2m/s | -53.4°C | 1.0% | 45.0hPa | 0V | 00:00:00 | 00:00:00 | 00:00:00 | |
| SQ9EZE-15 | 2026-09-01 00:23:56 | 52.75640 | 21.79729 | 107° | 4km/h | 21523m | 5.0m/s | -53.4°C | 0% | 0hPa | 0V | 00:00:00 | 00:00:00 | 00:00:00 | |
| SP4MAZ | 2026-09-01 00:23:52 | 52.75637 | 21.79728 | 146° | 11km/h | 21502m | 4.4m/s | -53.3°C | 1.0% | 46.3hPa | 0V | 00:00:00 | 00:00:00 | 00:00:00 | |
| SQ9EZE-15 | 2026-09-01 00:23:36 | 52.75675 | 21.79650 | 159° | 13km/h | 21419m | 5.7m/s | 0°C | 0% | 0hPa | 0V | 00:00:00 | 00:00:00 | 00:00:00 | |
| SP4MAZ | 2026-09-01 00:23:31 | 52.75693 | 21.79630 | 119° | 13km/h | 21386m | 7.5m/s | -53.3°C | 1.0% | 47.2hPa | 0V | 00:00:00 | 00:00:00 | 00:00:00 | |
| SQ9EZE-16 | 2026-09-01 00:23:29 | 52.75694 | 21.79627 | 135° | 18km/h | 21381m | 5.5m/s | 0°C | 0% | 0hPa | 0V | 00:00:00 | 00:00:00 | 00:00:00 | |
| SQ9EZE-16 | 2026-09-01 00:23:13 | 52.75742 | 21.79545 | 94° | 13km/h | 21277m | 5.1m/s | 0°C | 0% | 0hPa | 0V | 00:00:00 | 00:00:00 | 00:00:00 | |
| SP4MAZ | 2026-09-01 00:23:09 | 52.75748 | 21.79523 | 131° | 13km/h | 21259m | 4.7m/s | -53.4°C | 1.0% | 48.1hPa | 0V | 00:00:00 | 00:00:00 | 00:00:00 | |
| SQ9EZE-15 | 2026-09-01 00:22:42 | 52.75743 | 21.79382 | 93° | 11km/h | 21099m | 6.2m/s | 0°C | 0% | 49.3hPa | 0V | 00:00:00 | 00:00:00 | 00:00:00 | |
| SQ9EZE-15 | 2026-09-01 00:22:21 | 52.75703 | 21.79307 | 21° | 13km/h | 20978m | 4.5m/s | 0°C | 0% | 0hPa | 0V | 00:00:00 | 00:00:00 | 00:00:00 | |
| SP4MAZ | 2026-09-01 00:22:18 | 52.75690 | 21.79306 | 353° | 13km/h | 20962m | 4.0m/s | -53.6°C | 1.1% | 50.3hPa | 0V | 00:00:00 | 00:00:00 | 00:00:00 | |
| SP4MAZ | 2026-09-01 00:21:06 | 52.75638 | 21.79390 | 177° | 13km/h | 20562m | 6.1m/s | -51.9°C | 1.0% | 53.5hPa | 0V | 00:00:00 | 00:00:00 | 00:00:00 | |
| SP4MAZ | 2026-09-01 00:20:46 | 52.75692 | 21.79296 | 104° | 26km/h | 20445m | 4.9m/s | -52.2°C | 1.0% | 54.5hPa | 0V | 00:00:00 | 00:00:00 | 00:00:00 | |
| SP4MAZ | 2026-09-01 00:20:22 | 52.75688 | 21.79108 | 111° | 22km/h | 20316m | 6.2m/s | -51.8°C | 0.9% | 55.6hPa | 0V | 00:00:00 | 00:00:00 | 00:00:00 | |
| SP4MAZ | 2026-09-01 00:19:52 | 52.75725 | 21.78923 | 119° | 22km/h | 20135m | 4.7m/s | -51.5°C | 0.9% | 57.1hPa | 0V | 00:00:00 | 00:00:00 | 00:00:00 | |
| SQ9EZE-15 | 2026-09-01 00:19:50 | 52.75726 | 21.78906 | 99° | 22km/h | 20123m | 6.1m/s | 0°C | 0% | 0hPa | 0V | 00:00:00 | 00:00:00 | 00:00:00 | |
| SP4MAZ | 2026-09-01 00:19:31 | 52.75738 | 21.78720 | 82° | 20km/h | 20007m | 4.5m/s | -51.3°C | 0.9% | 58.2hPa | 0V | 00:00:00 | 00:00:00 | 00:00:00 | |
| SP4MAZ | 2026-09-01 00:19:11 | 52.75698 | 21.78558 | 47° | 24km/h | 19917m | 4.0m/s | -51.4°C | 0.9% | 59.2hPa | 0V | 00:00:00 | 00:00:00 | 00:00:00 | |
| SP4MAZ | 2026-09-01 00:18:22 | 52.75566 | 21.78299 | 70° | 24km/h | 19659m | 6.0m/s | -52.4°C | 1.0% | 61.7hPa | 0V | 00:00:00 | 00:00:00 | 00:00:00 | |
| SP4MAZ | 2026-09-01 00:17:59 | 52.75478 | 21.78134 | 32° | 22km/h | 19518m | 4.6m/s | -52.5°C | 1.0% | 62.9hPa | 0V | 00:00:00 | 00:00:00 | 00:00:00 | |
| SP4MAZ | 2026-09-01 00:17:11 | 52.75356 | 21.77992 | 2° | 13km/h | 19267m | 6.5m/s | -52.4°C | 1.0% | 65.5hPa | 0V | 00:00:00 | 00:00:00 | 00:00:00 | |
| SP4MAZ | 2026-09-01 00:16:48 | 52.75326 | 21.77960 | 65° | 5km/h | 19138m | 4.2m/s | -52.6°C | 1.0% | 66.8hPa | 0V | 00:00:00 | 00:00:00 | 00:00:00 | |
| SP4MAZ | 2026-09-01 00:16:16 | 52.75238 | 21.77776 | 33° | 31km/h | 18957m | 6.3m/s | -53.4°C | 1.0% | 68.5hPa | 0V | 00:00:00 | 00:00:00 | 00:00:00 | |
| SP4MAZ | 2026-09-01 00:15:55 | 52.75119 | 21.77615 | 51° | 26km/h | 18846m | 5.5m/s | -53.5°C | 1.0% | 69.8hPa | 0V | 00:00:00 | 00:00:00 | 00:00:00 | |
| SP4MAZ | 2026-09-01 00:15:32 | 52.74966 | 21.77487 | 19° | 33km/h | 18725m | 5.4m/s | -53.7°C | 1.1% | 71.2hPa | 0V | 00:00:00 | 00:00:00 | 00:00:00 | |
| SP4MAZ | 2026-09-01 00:15:11 | 52.74830 | 21.77467 | 5° | 20km/h | 18611m | 3.9m/s | -53.3°C | 1.0% | 72.5hPa | 0V | 00:00:00 | 00:00:00 | 00:00:00 | |
| SP4MAZ | 2026-09-01 00:14:49 | 52.74753 | 21.77482 | 36° | 9km/h | 18494m | 4.5m/s | -54.2°C | 1.1% | 73.8hPa | 0V | 00:00:00 | 00:00:00 | 00:00:00 | |
| SP4MAZ | 2026-09-01 00:14:28 | 52.74726 | 21.77414 | 71° | 15km/h | 18418m | 5.7m/s | -53.6°C | 1.1% | 75.1hPa | 0V | 00:00:00 | 00:00:00 | 00:00:00 | |
| SP4MAZ | 2026-09-01 00:14:07 | 52.74717 | 21.77336 | 101° | 15km/h | 18277m | 5.7m/s | -53.7°C | 1.1% | 76.4hPa | 0V | 00:00:00 | 00:00:00 | 00:00:00 | |
| SP4MAZ | 2026-09-01 00:13:46 | 52.74756 | 21.77227 | 137° | 16km/h | 18169m | 5.5m/s | -53.5°C | 1.1% | 77.7hPa | 0V | 00:00:00 | 00:00:00 | 00:00:00 | |
| SP4MAZ | 2026-09-01 00:13:14 | 52.74798 | 21.76947 | 118° | 24km/h | 18005m | 5.5m/s | -53.1°C | 1.1% | 79.7hPa | 0V | 00:00:00 | 00:00:00 | 00:00:00 | |
| SP4MAZ | 2026-09-01 00:12:53 | 52.74823 | 21.76791 | 108° | 24km/h | 17898m | 5.4m/s | -52.6°C | 1.0% | 81.0hPa | 0V | 00:00:00 | 00:00:00 | 00:00:00 | |
| SP4MAZ | 2026-09-01 00:12:32 | 52.74865 | 21.76614 | 105° | 31km/h | 17787m | 5.4m/s | -52.0°C | 1.0% | 82.3hPa | 0V | 00:00:00 | 00:00:00 | 00:00:00 | |
| SP4MAZ | 2026-09-01 00:12:12 | 52.74911 | 21.76406 | 105° | 27km/h | 17684m | 5.4m/s | -52.2°C | 1.0% | 83.6hPa | 0V | 00:00:00 | 00:00:00 | 00:00:00 | |
| SP4MAZ | 2026-09-01 00:11:51 | 52.74946 | 21.76134 | 96° | 31km/h | 17578m | 3.1m/s | -51.8°C | 1.0% | 85.0hPa | 0V | 00:00:00 | 00:00:00 | 00:00:00 | |
| SP4MAZ | 2026-09-01 00:11:29 | 52.74966 | 21.75807 | 87° | 40km/h | 17472m | 5.8m/s | -51.8°C | 1.0% | 86.4hPa | 0V | 00:00:00 | 00:00:00 | 00:00:00 | |
| SP4MAZ | 2026-09-01 00:11:08 | 52.74935 | 21.75433 | 76° | 40km/h | 17356m | 5.7m/s | -51.6°C | 1.0% | 87.9hPa | 0V | 00:00:00 | 00:00:00 | 00:00:00 | |
| SP4MAZ | 2026-09-01 00:10:48 | 52.74863 | 21.75064 | 69° | 51km/h | 17252m | 4.6m/s | -51.8°C | 1.0% | 89.4hPa | 0V | 00:00:00 | 00:00:00 | 00:00:00 | |
| SP4MAZ | 2026-09-01 00:10:07 | 52.74582 | 21.74297 | 44° | 62km/h | 17033m | 4.9m/s | -52.6°C | 1.1% | 92.5hPa | 0V | 00:00:00 | 00:00:00 | 00:00:00 | |
| SP4MAZ | 2026-09-01 00:09:39 | 52.74295 | 21.73863 | 47° | 53km/h | 16887m | 6.4m/s | -52.4°C | 1.1% | 94.7hPa | 0V | 00:00:00 | 00:00:00 | 00:00:00 | |
| SP4MAZ | 2026-09-01 00:09:18 | 52.74144 | 21.73569 | 63° | 49km/h | 16776m | 4.3m/s | -52.8°C | 1.1% | 96.3hPa | 0V | 00:00:00 | 00:00:00 | 00:00:00 | |
| SP4MAZ | 2026-09-01 00:08:57 | 52.74029 | 21.73198 | 58° | 42km/h | 16665m | 4.1m/s | -52.6°C | 1.1% | 98.0hPa | 0V | 00:00:00 | 00:00:00 | 00:00:00 | |
| SP4MAZ | 2026-09-01 00:08:37 | 52.73932 | 21.72856 | 68° | 46km/h | 16565m | 6.0m/s | -53.1°C | 1.2% | 99.5hPa | 0V | 00:00:00 | 00:00:00 | 00:00:00 | |
| SP4MAZ | 2026-09-01 00:08:07 | 52.73804 | 21.72299 | 77° | 51km/h | 16420m | 3.7m/s | -53.5°C | 1.3% | 101.8hPa | 0V | 00:00:00 | 00:00:00 | 00:00:00 | |
| SP4MAZ | 2026-09-01 00:07:47 | 52.73738 | 21.71868 | 80° | 53km/h | 16322m | 4.5m/s | -53.2°C | 1.3% | 103.3hPa | 0V | 00:00:00 | 00:00:00 | 00:00:00 | |
| SP4MAZ | 2026-09-01 00:07:24 | 52.73638 | 21.71309 | 68° | 73km/h | 16206m | 4.9m/s | -53.3°C | 1.3% | 105.2hPa | 0V | 00:00:00 | 00:00:00 | 00:00:00 | |
| SP4MAZ | 2026-09-01 00:06:55 | 52.73392 | 21.70599 | 51° | 62km/h | 16047m | 4.7m/s | -53.1°C | 1.4% | 107.7hPa | 0V | 00:00:00 | 00:00:00 | 00:00:00 | |
| SP4MAZ | 2026-09-01 00:06:35 | 52.73186 | 21.70174 | 50° | 55km/h | 15942m | 5.8m/s | -52.8°C | 1.4% | 109.6hPa | 0V | 00:00:00 | 00:00:00 | 00:00:00 | |
| SP4MAZ | 2026-09-01 00:06:14 | 52.72960 | 21.69813 | 40° | 58km/h | 15825m | 4.8m/s | -52.4°C | 1.3% | 111.5hPa | 0V | 00:00:00 | 00:00:00 | 00:00:00 | |
| SP4MAZ | 2026-09-01 00:05:52 | 52.72697 | 21.69567 | 26° | 51km/h | 15708m | 4.1m/s | -53.1°C | 1.4% | 113.5hPa | 0V | 00:00:00 | 00:00:00 | 00:00:00 | |
| SP4MAZ | 2026-09-01 00:05:21 | 52.72389 | 21.69223 | 40° | 49km/h | 15554m | 4.4m/s | -52.4°C | 1.4% | 116.4hPa | 0V | 00:00:00 | 00:00:00 | 00:00:00 | |
| SP4MAZ | 2026-09-01 00:04:57 | 52.72196 | 21.68971 | 42° | 42km/h | 15433m | 4.8m/s | -52.1°C | 1.4% | 118.5hPa | 0V | 00:00:00 | 00:00:00 | 00:00:00 | |
| SP4MAZ | 2026-09-01 00:04:28 | 52.71996 | 21.68592 | 57° | 35km/h | 15290m | 4.8m/s | -51.7°C | 1.4% | 121.4hPa | 0V | 00:00:00 | 00:00:00 | 00:00:00 | |
| SP4MAZ | 2026-09-01 00:04:04 | 52.71908 | 21.68248 | 69° | 44km/h | 15158m | 7.5m/s | -51.2°C | 1.2% | 123.7hPa | 0V | 00:00:00 | 00:00:00 | 00:00:00 | |
| SP4MAZ | 2026-09-01 00:03:48 | 52.71868 | 21.67926 | 81° | 44km/h | 15041m | 5.2m/s | -51.3°C | 1.3% | 125.8hPa | 0V | 00:00:00 | 00:00:00 | 00:00:00 | |
| SP4MAZ | 2026-09-01 00:03:32 | 52.71806 | 21.67400 | 78° | 44km/h | 14891m | 3.5m/s | -50.3°C | 1.2% | 128.9hPa | 0V | 00:00:00 | 00:00:00 | 00:00:00 | |
| SP4MAZ | 2026-09-01 00:03:13 | 52.71758 | 21.67023 | 82° | 46km/h | 14775m | 5.7m/s | -49.6°C | 1.2% | 131.1hPa | 0V | 00:00:00 | 00:00:00 | 00:00:00 | |
| SP4MAZ | 2026-09-01 00:02:45 | 52.71678 | 21.66684 | 66° | 40km/h | 14675m | 5.8m/s | -49.0°C | 1.1% | 133.2hPa | 0V | 00:00:00 | 00:00:00 | 00:00:00 | |
| SP4MAZ | 2026-09-01 00:01:57 | 52.71435 | 21.65702 | 77° | 62km/h | 14432m | 5.9m/s | -49.6°C | 1.2% | 138.2hPa | 0V | 00:00:00 | 00:00:00 | 00:00:00 | |
| SP4MAZ | 2026-09-01 00:01:25 | 52.71317 | 21.65131 | 80° | 58km/h | 14321m | 4.9m/s | -49.4°C | 1.2% | 140.5hPa | 0V | 00:00:00 | 00:00:00 | 00:00:00 | |
| SP4MAZ | 2026-09-01 00:00:52 | 52.71167 | 21.64400 | 75° | 68km/h | 14179m | 4.7m/s | -49.4°C | 1.3% | 143.6hPa | 0V | 00:00:00 | 00:00:00 | 00:00:00 | |
| SP4MAZ | 2026-09-01 00:00:29 | 52.71033 | 21.63797 | 73° | 78km/h | 14078m | 4.6m/s | -49.6°C | 1.3% | 145.8hPa | 0V | 00:00:00 | 00:00:00 | 00:00:00 | |
| SP4MAZ | 2026-09-01 00:00:08 | 52.70871 | 21.63197 | 58° | 82km/h | 13988m | 4.7m/s | -50.0°C | 1.3% | 147.9hPa | 0V | 00:00:00 | 00:00:00 | 00:00:00 | |
| SP4MAZ | 2026-08-31 23:59:45 | 52.70662 | 21.62601 | 58° | 68km/h | 13886m | 6.6m/s | -49.8°C | 1.3% | 150.2hPa | 0V | 00:00:00 | 00:00:00 | 00:00:00 | |
| SP4MAZ | 2026-08-31 23:59:25 | 52.70501 | 21.62062 | 63° | 77km/h | 13789m | 4.0m/s | -49.8°C | 0% | 0hPa | 0V | 00:00:00 | 00:00:00 | 00:00:00 | |
| SP4MAZ | 2026-08-31 23:58:54 | 52.70197 | 21.61166 | 60° | 86km/h | 13647m | 4.6m/s | -50.1°C | 1.4% | 155.6hPa | 0V | 00:00:00 | 00:00:00 | 00:00:00 | |
| SP4MAZ | 2026-08-31 23:58:30 | 52.69872 | 21.60418 | 52° | 100km/h | 13542m | 4.1m/s | -50.7°C | 0% | 0hPa | 0V | 00:00:00 | 00:00:00 | 00:00:00 | |
| SP4MAZ | 2026-08-31 23:58:10 | 52.69547 | 21.59799 | 47° | 97km/h | 13440m | 4.5m/s | -50.4°C | 0% | 0hPa | 0V | 00:00:00 | 00:00:00 | 00:00:00 | |
| SP4MAZ | 2026-08-31 23:57:41 | 52.69115 | 21.59008 | 47° | 78km/h | 13307m | 4.8m/s | -50.1°C | 1.5% | 164.0hPa | 0V | 00:00:00 | 00:00:00 | 00:00:00 | |
| SP4MAZ | 2026-08-31 23:57:20 | 52.68820 | 21.58482 | 48° | 75km/h | 13213m | 4.2m/s | -50.4°C | 1.6% | 166.5hPa | 0V | 00:00:00 | 00:00:00 | 00:00:00 | |
| SP4MAZ | 2026-08-31 23:57:00 | 52.68541 | 21.57988 | 51° | 82km/h | 13114m | 4.0m/s | -50.3°C | 1.7% | 168.9hPa | 0V | 00:00:00 | 00:00:00 | 00:00:00 | |
| SP4MAZ | 2026-08-31 23:56:37 | 52.68248 | 21.57377 | 60° | 71km/h | 13008m | 5.3m/s | -50.3°C | 0% | 0hPa | 0V | 00:00:00 | 00:00:00 | 00:00:00 | |
| SP4MAZ | 2026-08-31 23:56:04 | 52.67877 | 21.56532 | 55° | 80km/h | 12842m | 6.8m/s | -50.3°C | 1.8% | 176.1hPa | 0V | 00:00:00 | 00:00:00 | 00:00:00 | |
| SP4MAZ | 2026-08-31 23:55:44 | 52.67618 | 21.55976 | 47° | 82km/h | 12730m | 5.0m/s | -50.1°C | 1.9% | 179.2hPa | 0V | 00:00:00 | 00:00:00 | 00:00:00 | |
| SP4MAZ | 2026-08-31 23:55:22 | 52.67329 | 21.55375 | 55° | 80km/h | 12613m | 6.3m/s | -49.6°C | 0% | 0hPa | 0V | 00:00:00 | 00:00:00 | 00:00:00 | |
| SP4MAZ | 2026-08-31 23:55:02 | 52.67097 | 21.54841 | 58° | 86km/h | 12509m | 6.2m/s | -50.0°C | 0% | 0hPa | 0V | 00:00:00 | 00:00:00 | 00:00:00 | |
| SP4MAZ | 2026-08-31 23:54:32 | 52.66705 | 21.53927 | 54° | 91km/h | 12362m | 4.9m/s | -49.9°C | 2.4% | 189.7hPa | 0V | 00:00:00 | 00:00:00 | 00:00:00 | |
| SP4MAZ | 2026-08-31 23:54:11 | 52.66406 | 21.53318 | 52° | 91km/h | 12259m | 5.5m/s | -49.8°C | 2.6% | 192.7hPa | 0V | 00:00:00 | 00:00:00 | 00:00:00 | |
| SP4MAZ | 2026-08-31 23:53:50 | 52.66115 | 21.52729 | 54° | 82km/h | 12162m | 4.3m/s | -50.6°C | 2.8% | 195.6hPa | 0V | 00:00:00 | 00:00:00 | 00:00:00 | |
| SP4MAZ | 2026-08-31 23:53:28 | 52.65863 | 21.52088 | 57° | 86km/h | 12050m | 4.5m/s | -50.7°C | 0% | 0hPa | 0V | 00:00:00 | 00:00:00 | 00:00:00 | |
| SP4MAZ | 2026-08-31 23:53:08 | 52.65602 | 21.51479 | 51° | 93km/h | 11961m | 6.0m/s | -51.3°C | 0% | 0hPa | 0V | 00:00:00 | 00:00:00 | 00:00:00 | |
| SP4MAZ | 2026-08-31 23:52:37 | 52.65169 | 21.50584 | 58° | 80km/h | 11809m | 5.5m/s | -51.4°C | 7.6% | 206.4hPa | 0V | 00:00:00 | 00:00:00 | 00:00:00 | |
| SP4MAZ | 2026-08-31 23:52:16 | 52.64969 | 21.49971 | 69° | 91km/h | 11721m | 3.4m/s | -52.9°C | 15.8% | 209.5hPa | 0V | 00:00:00 | 00:00:00 | 00:00:00 | |
| SP4MAZ | 2026-08-31 23:51:56 | 52.64726 | 21.49223 | 61° | 111km/h | 11605m | 8.8m/s | -55.6°C | 27.9% | 213.3hPa | 0V | 00:00:00 | 00:00:00 | 00:00:00 | |
| SP4MAZ | 2026-08-31 23:51:35 | 52.64446 | 21.48372 | 60° | 111km/h | 11470m | 6.8m/s | -57.2°C | 36.7% | 217.9hPa | 0V | 00:00:00 | 00:00:00 | 00:00:00 | |
| SP4MAZ | 2026-08-31 23:51:11 | 52.64104 | 21.47348 | 64° | 126km/h | 11336m | 3.3m/s | -57.1°C | 0% | 0hPa | 0V | 00:00:00 | 00:00:00 | 00:00:00 | |
| SP4MAZ | 2026-08-31 23:50:51 | 52.63782 | 21.46304 | 62° | 150km/h | 11209m | 5.7m/s | -56.8°C | 0% | 0hPa | 0V | 00:00:00 | 00:00:00 | 00:00:00 | |
| SP4MAZ | 2026-08-31 23:50:26 | 52.63275 | 21.44531 | 62° | 161km/h | 11037m | 6.3m/s | -56.0°C | 71.6% | 233.0hPa | 0V | 00:00:00 | 00:00:00 | 00:00:00 | |
| SP4MAZ | 2026-08-31 23:49:59 | 52.62872 | 21.43181 | 64° | 181km/h | 10908m | 8.7m/s | -55.2°C | 68.6% | 237.8hPa | 0V | 00:00:00 | 00:00:00 | 00:00:00 | |
| SP4MAZ | 2026-08-31 23:49:40 | 52.62447 | 21.41847 | 62° | 181km/h | 10787m | 3.9m/s | -54.2°C | 68.7% | 242.3hPa | 0V | 00:00:00 | 00:00:00 | 00:00:00 | |
| SP4MAZ | 2026-08-31 23:49:17 | 52.61969 | 21.40433 | 62° | 181km/h | 10670m | 7.4m/s | -53.2°C | 0% | 0hPa | 0V | 00:00:00 | 00:00:00 | 00:00:00 | |
| SP4MAZ | 2026-08-31 23:48:57 | 52.61538 | 21.39196 | 62° | 162km/h | 10568m | 4.5m/s | -52.5°C | 0% | 0hPa | 0V | 00:00:00 | 00:00:00 | 00:00:00 | |
| SP4MAZ | 2026-08-31 23:48:27 | 52.60805 | 21.37321 | 51° | 172km/h | 10402m | 6.5m/s | -51.2°C | 67.9% | 257.3hPa | 0V | 00:00:00 | 00:00:00 | 00:00:00 | |
| SP4MAZ | 2026-08-31 23:48:06 | 52.60288 | 21.36267 | 53° | 168km/h | 10272m | 3.3m/s | -50.1°C | 68.3% | 262.1hPa | 0V | 00:00:00 | 00:00:00 | 00:00:00 | |
| SP4MAZ | 2026-08-31 23:47:44 | 52.59712 | 21.35052 | 54° | 161km/h | 10153m | 4.5m/s | -49.1°C | 0% | 0hPa | 0V | 00:00:00 | 00:00:00 | 00:00:00 | |
| SP4MAZ | 2026-08-31 23:47:23 | 52.59221 | 21.33974 | 54° | 162km/h | 10048m | 3.4m/s | -48.2°C | 0% | 0hPa | 0V | 00:00:00 | 00:00:00 | 00:00:00 | |
| SP4MAZ | 2026-08-31 23:46:52 | 52.58495 | 21.32333 | 57° | 155km/h | 9874m | 4.0m/s | -46.7°C | 79.7% | 278.5hPa | 0V | 00:00:00 | 00:00:00 | 00:00:00 | |
| SP4MAZ | 2026-08-31 23:46:31 | 52.57982 | 21.31200 | 53° | 159km/h | 9764m | 4.1m/s | -45.6°C | 0% | 283.2hPa | 0V | 00:00:00 | 00:00:00 | 00:00:00 | |
| SP4MAZ | 2026-08-31 23:46:08 | 52.57418 | 21.29917 | 58° | 170km/h | 9634m | 5.2m/s | -44.6°C | 0% | 0hPa | 0V | 00:00:00 | 00:00:00 | 00:00:00 | |
| SP4MAZ | 2026-08-31 23:45:48 | 52.56895 | 21.28768 | 51° | 161km/h | 9513m | 5.0m/s | -43.5°C | 0% | 0hPa | 0V | 00:00:00 | 00:00:00 | 00:00:00 | |
| SP4MAZ | 2026-08-31 23:45:17 | 52.56179 | 21.27135 | 58° | 157km/h | 9326m | 4.8m/s | -42.1°C | 0% | 302.3hPa | 0V | 00:00:00 | 00:00:00 | 00:00:00 | |
| SP4MAZ | 2026-08-31 23:44:53 | 52.55695 | 21.25947 | 57° | 141km/h | 9198m | 7.6m/s | -41.6°C | 0% | 0hPa | 0V | 00:00:00 | 00:00:00 | 00:00:00 | |
| SP4MAZ | 2026-08-31 23:44:33 | 52.55339 | 21.25006 | 60° | 141km/h | 9066m | 6.3m/s | -40.6°C | 0% | 0hPa | 0V | 00:00:00 | 00:00:00 | 00:00:00 | |
| SP4MAZ | 2026-08-31 23:44:02 | 52.54843 | 21.23731 | 55° | 117km/h | 8862m | 5.2m/s | -39.5°C | 0% | 323.7hPa | 0V | 00:00:00 | 00:00:00 | 00:00:00 | |
| SP4MAZ | 2026-08-31 23:43:42 | 52.54541 | 21.23003 | 54° | 102km/h | 8742m | 7.5m/s | -38.4°C | 0% | 329.7hPa | 0V | 00:00:00 | 00:00:00 | 00:00:00 | |
| SP4MAZ | 2026-08-31 23:43:19 | 52.54192 | 21.22258 | 38° | 78km/h | 8605m | 6.3m/s | -37.4°C | 0% | 0hPa | 0V | 00:00:00 | 00:00:00 | 00:00:00 | |
| SP4MAZ | 2026-08-31 23:42:48 | 52.53657 | 21.21322 | 41° | 102km/h | 8391m | 9.4m/s | -35.5°C | 0% | 346.6hPa | 0V | 00:00:00 | 00:00:00 | 00:00:00 | |
| SP4MAZ | 2026-08-31 23:42:27 | 52.53295 | 21.20795 | 45° | 88km/h | 8256m | 7.0m/s | -34.5°C | 0% | 353.4hPa | 0V | 00:00:00 | 00:00:00 | 00:00:00 | |
| SP4MAZ | 2026-08-31 23:42:06 | 52.52902 | 21.20254 | 35° | 102km/h | 8133m | 5.1m/s | -33.4°C | 0% | 359.7hPa | 0V | 00:00:00 | 00:00:00 | 00:00:00 | |
| SP4MAZ | 2026-08-31 23:41:44 | 52.52490 | 21.19738 | 42° | 97km/h | 7999m | 7.7m/s | -32.3°C | 0% | 0hPa | 0V | 00:00:00 | 00:00:00 | 00:00:00 | |
| SP4MAZ | 2026-08-31 23:41:24 | 52.52143 | 21.19261 | 39° | 93km/h | 7874m | 6.6m/s | -31.5°C | 0% | 0hPa | 0V | 00:00:00 | 00:00:00 | 00:00:00 | |
| SP4MAZ | 2026-08-31 23:40:53 | 52.51582 | 21.18517 | 42° | 88km/h | 7691m | 7.5m/s | -30.0°C | 0% | 382.8hPa | 0V | 00:00:00 | 00:00:00 | 00:00:00 | |
| SP4MAZ | 2026-08-31 23:40:32 | 52.51247 | 21.18065 | 40° | 84km/h | 7579m | 6.5m/s | -29.0°C | 0% | 388.9hPa | 0V | 00:00:00 | 00:00:00 | 00:00:00 | |
| SP4MAZ | 2026-08-31 23:40:11 | 52.50895 | 21.17603 | 46° | 84km/h | 7447m | 6.6m/s | -28.1°C | 0% | 0hPa | 0V | 00:00:00 | 00:00:00 | 00:00:00 | |
| SP4MAZ | 2026-08-31 23:39:49 | 52.50563 | 21.17216 | 35° | 80km/h | 7327m | 4.5m/s | -27.3°C | 0% | 0hPa | 0V | 00:00:00 | 00:00:00 | 00:00:00 | |
| SP4MAZ | 2026-08-31 23:39:18 | 52.50103 | 21.16767 | 38° | 78km/h | 7141m | 6.8m/s | -25.8°C | 0% | 413.3hPa | 0V | 00:00:00 | 00:00:00 | 00:00:00 | |
| SP4MAZ | 2026-08-31 23:38:57 | 52.49793 | 21.16412 | 30° | 69km/h | 7021m | 3.7m/s | -24.9°C | 0% | 420.4hPa | 0V | 00:00:00 | 00:00:00 | 00:00:00 | |
| SP4MAZ | 2026-08-31 23:38:37 | 52.49515 | 21.16120 | 31° | 64km/h | 6902m | 5.6m/s | -23.9°C | 0% | 426.9hPa | 0V | 00:00:00 | 00:00:00 | 00:00:00 | |
| SP4MAZ | 2026-08-31 23:38:15 | 52.49224 | 21.15797 | 39° | 66km/h | 6781m | 6.2m/s | -23.1°C | 0% | 0hPa | 0V | 00:00:00 | 00:00:00 | 00:00:00 | |
| SP4MAZ | 2026-08-31 23:37:54 | 52.48934 | 21.15416 | 45° | 69km/h | 6670m | 3.8m/s | -23.0°C | 0% | 0hPa | 0V | 00:00:00 | 00:00:00 | 00:00:00 | |
| SP4MAZ | 2026-08-31 23:37:23 | 52.48498 | 21.14843 | 37° | 60km/h | 6518m | 4.9m/s | -21.7°C | 0% | 450.0hPa | 0V | 00:00:00 | 00:00:00 | 00:00:00 | |
| SP4MAZ | 2026-08-31 23:36:27 | 52.47770 | 21.13928 | 33° | 73km/h | 6218m | 8.3m/s | -18.9°C | 0% | 468.7hPa | 0V | 00:00:00 | 00:00:00 | 00:00:00 | |
| SP4MAZ | 2026-08-31 23:36:08 | 52.47473 | 21.13585 | 33° | 57km/h | 6101m | 6.4m/s | -17.8°C | 0% | 476.2hPa | 0V | 00:00:00 | 00:00:00 | 00:00:00 | |
| SP4MAZ | 2026-08-31 23:35:46 | 52.47192 | 21.13298 | 28° | 64km/h | 5988m | 5.2m/s | -16.9°C | 0% | 483.5hPa | 0V | 00:00:00 | 00:00:00 | 00:00:00 | |
| SP4MAZ | 2026-08-31 23:35:24 | 52.46851 | 21.12960 | 34° | 77km/h | 5861m | 7.0m/s | -15.7°C | 0% | 0hPa | 0V | 00:00:00 | 00:00:00 | 00:00:00 | |
| SP4MAZ | 2026-08-31 23:35:03 | 52.46564 | 21.12654 | 43° | 71km/h | 5744m | 5.4m/s | -14.6°C | 0% | 0hPa | 0V | 00:00:00 | 00:00:00 | 00:00:00 | |
| SP4MAZ | 2026-08-31 23:34:34 | 52.46127 | 21.12190 | 38° | 66km/h | 5582m | 7.7m/s | -13.2°C | 0% | 510.1hPa | 0V | 00:00:00 | 00:00:00 | 00:00:00 | |
| SP4MAZ | 2026-08-31 23:34:12 | 52.45854 | 21.11861 | 39° | 77km/h | 5460m | 3.4m/s | -12.3°C | 0% | 517.9hPa | 0V | 00:00:00 | 00:00:00 | 00:00:00 | |
| SP4MAZ | 2026-08-31 23:33:51 | 52.45567 | 21.11502 | 38° | 64km/h | 5346m | 6.8m/s | -11.3°C | 0% | 525.8hPa | 0V | 00:00:00 | 00:00:00 | 00:00:00 | |
| SP4MAZ | 2026-08-31 23:33:28 | 52.45308 | 21.11071 | 49° | 66km/h | 5218m | 4.2m/s | -10.3°C | 0% | 0hPa | 0V | 00:00:00 | 00:00:00 | 00:00:00 | |
| SP4MAZ | 2026-08-31 23:33:08 | 52.45076 | 21.10748 | 51° | 66km/h | 5115m | 5.9m/s | -9.4°C | 0% | 0hPa | 0V | 00:00:00 | 00:00:00 | 00:00:00 | |
| SP4MAZ | 2026-08-31 23:32:37 | 52.44722 | 21.10182 | 55° | 69km/h | 4937m | 5.8m/s | -8.1°C | 0% | 554.6hPa | 0V | 00:00:00 | 00:00:00 | 00:00:00 | |
| SP4MAZ | 2026-08-31 23:32:17 | 52.44508 | 21.09775 | 53° | 58km/h | 4830m | 4.0m/s | -7.2°C | 0% | 562.3hPa | 0V | 00:00:00 | 00:00:00 | 00:00:00 | |
| SP4MAZ | 2026-08-31 23:31:54 | 52.44290 | 21.09364 | 49° | 66km/h | 4706m | 6.7m/s | 0°C | 0% | 0hPa | 0V | 00:00:00 | 00:00:00 | 00:00:00 | |
| SP4MAZ | 2026-08-31 23:31:22 | 52.43941 | 21.08735 | 44° | 73km/h | 4528m | 4.9m/s | -4.5°C | 0% | 0hPa | 0V | 00:00:00 | 00:00:00 | 00:00:00 | |
| SP4MAZ | 2026-08-31 23:30:58 | 52.43656 | 21.08318 | 39° | 75km/h | 4398m | 5.8m/s | 0°C | 0% | 0hPa | 0V | 00:00:00 | 00:00:00 | 00:00:00 | |
| SP4MAZ | 2026-08-31 23:30:35 | 52.43440 | 21.07850 | 55° | 55km/h | 4274m | 5.6m/s | 0°C | 0% | 0hPa | 0V | 00:00:00 | 00:00:00 | 00:00:00 | |
| SP4MAZ | 2026-08-31 23:30:04 | 52.43147 | 21.07284 | 52° | 46km/h | 4115m | 4.5m/s | 0°C | 0% | 0hPa | 0V | 00:00:00 | 00:00:00 | 00:00:00 | |
| SP4MAZ | 2026-08-31 23:29:37 | 52.42923 | 21.06811 | 54° | 58km/h | 3981m | 4.2m/s | 0°C | 0% | 0hPa | 0V | 00:00:00 | 00:00:00 | 00:00:00 | |
| SP4MAZ | 2026-08-31 23:29:07 | 52.42664 | 21.06241 | 61° | 53km/h | 3826m | 3.6m/s | 0°C | 0% | 0hPa | 0V | 00:00:00 | 00:00:00 | 00:00:00 | |
| SP4MAZ | 2026-08-31 23:28:45 | 52.42555 | 21.05886 | 59° | 44km/h | 3722m | 5.8m/s | 0°C | 0% | 0hPa | 0V | 00:00:00 | 00:00:00 | 00:00:00 | |
| SP4MAZ | 2026-08-31 23:28:23 | 52.42440 | 21.05592 | 60° | 37km/h | 3613m | 3.8m/s | 0°C | 0% | 0hPa | 0V | 00:00:00 | 00:00:00 | 00:00:00 | |
| SP4MAZ | 2026-08-31 23:28:02 | 52.42335 | 21.05375 | 61° | 29km/h | 3502m | 6.1m/s | 0°C | 0% | 0hPa | 0V | 00:00:00 | 00:00:00 | 00:00:00 | |
| SP4MAZ | 2026-08-31 23:27:41 | 52.42180 | 21.05190 | 59° | 40km/h | 3394m | 5.0m/s | 0°C | 0% | 0hPa | 0V | 00:00:00 | 00:00:00 | 00:00:00 | |
| SP4MAZ | 2026-08-31 23:27:10 | 52.41972 | 21.04799 | 63° | 44km/h | 3239m | 3.5m/s | 0°C | 0% | 0hPa | 0V | 00:00:00 | 00:00:00 | 00:00:00 | |
| SP4MAZ | 2026-08-31 23:26:51 | 52.41848 | 21.04482 | 69° | 57km/h | 3132m | 5.5m/s | 0°C | 0% | 0hPa | 0V | 00:00:00 | 00:00:00 | 00:00:00 | |
| SP4MAZ | 2026-08-31 23:26:29 | 52.41714 | 21.04070 | 72° | 53km/h | 3019m | 4.9m/s | 0°C | 0% | 0hPa | 0V | 00:00:00 | 00:00:00 | 00:00:00 | |
| SP4MAZ | 2026-08-31 23:26:04 | 52.41551 | 21.03621 | 67° | 55km/h | 2886m | 3.0m/s | 0°C | 0% | 0hPa | 0V | 00:00:00 | 00:00:00 | 00:00:00 | |
| SP4MAZ | 2026-08-31 23:25:43 | 52.41392 | 21.03238 | 54° | 58km/h | 2772m | 5.0m/s | 0°C | 0% | 0hPa | 0V | 00:00:00 | 00:00:00 | 00:00:00 |